Time;durP1;ratioP1;P1;durP2;ratioP2;P2;SDS_P1;SDS_P2;PMS_P1;PMS_P2;Temp;Humidity;BMP_temperature;BMP_pressure;BME280_temperature;BME280_humidity;BME280_pressure;Samples;Min_cycle;Max_cycle;Signal;HPM_P1;HPM_P2
2022/05/11 00:02:25;;;;;;;14.23;2.22;;;12.30;99.90;;;;;;5069654;28;20035;-79
2022/05/11 00:04:51;;;;;;;13.52;1.92;;;12.30;99.90;;;;;;5070305;28;20056;-80
2022/05/11 00:07:17;;;;;;;7.95;2.28;;;12.30;99.90;;;;;;5076410;28;20032;-80
2022/05/11 00:09:43;;;;;;;11.25;2.53;;;12.30;99.90;;;;;;5070276;28;20027;-80
2022/05/11 00:12:09;;;;;;;11.60;1.98;;;12.30;99.90;;;;;;5070151;28;20021;-81
2022/05/11 00:14:35;;;;;;;9.85;2.47;;;12.30;99.90;;;;;;5070656;28;20689;-80
2022/05/11 00:17:00;;;;;;;10.57;2.30;;;12.30;99.90;;;;;;5071176;28;20016;-79
2022/05/11 00:19:27;;;;;;;11.90;2.70;;;12.30;99.90;;;;;;5071139;28;20032;-80
2022/05/11 00:21:53;;;;;;;4.28;1.98;;;12.30;99.90;;;;;;5069621;28;20119;-81
2022/05/11 00:24:19;;;;;;;7.07;1.88;;;12.30;99.90;;;;;;5069758;28;20060;-80
2022/05/11 00:26:45;;;;;;;12.40;2.25;;;12.30;99.90;;;;;;5069881;28;20013;-80
2022/05/11 00:29:11;;;;;;;14.15;3.15;;;12.30;99.90;;;;;;5070500;28;20066;-80
2022/05/11 00:31:37;;;;;;;14.88;2.85;;;12.30;99.90;;;;;;5070472;28;20035;-80
2022/05/11 00:34:02;;;;;;;10.23;1.90;;;12.30;99.90;;;;;;5069576;28;20020;-80
2022/05/11 00:36:29;;;;;;;10.05;2.33;;;12.30;99.90;;;;;;5070509;28;20112;-80
2022/05/11 00:38:54;;;;;;;14.05;2.13;;;12.30;99.90;;;;;;5069103;28;20025;-80
2022/05/11 00:41:20;;;;;;;17.30;3.20;;;12.30;99.90;;;;;;5070868;28;20055;-79
2022/05/11 00:43:57;;;;;;;6.32;1.88;;;12.30;99.90;;;;;;5069176;28;20388;-80
2022/05/11 00:46:45;;;;;;;9.60;2.17;;;12.30;99.90;;;;;;5069670;28;20032;-79
2022/05/11 00:49:34;;;;;;;16.00;2.03;;;12.30;99.90;;;;;;5069050;28;20517;-81
2022/05/11 00:52:05;;;;;;;15.77;3.58;;;12.30;99.90;;;;;;5070871;28;20016;-80
2022/05/11 00:54:36;;;;;;;13.13;2.88;;;12.20;99.90;;;;;;5067767;28;20099;-80
2022/05/11 00:57:07;;;;;;;7.77;1.80;;;12.20;99.90;;;;;;5074157;28;20485;-79
2022/05/11 00:59:36;;;;;;;13.77;2.05;;;12.20;99.90;;;;;;5069819;28;20060;-80
2022/05/11 01:02:04;;;;;;;13.38;2.42;;;12.30;99.90;;;;;;5070417;28;20022;-79
2022/05/11 01:04:37;;;;;;;13.88;2.10;;;12.30;99.90;;;;;;5070559;28;20024;-80
2022/05/11 01:07:04;;;;;;;8.93;2.40;;;12.30;99.90;;;;;;5070291;28;20028;-79
2022/05/11 01:09:30;;;;;;;13.93;1.75;;;12.40;99.90;;;;;;5068630;28;20126;-80
2022/05/11 01:11:59;;;;;;;11.23;2.65;;;12.40;99.90;;;;;;5070020;28;20484;-80
2022/05/11 01:14:29;;;;;;;9.13;1.90;;;12.50;99.90;;;;;;5076735;28;20115;-80
2022/05/11 01:16:56;;;;;;;5.75;1.92;;;12.40;99.90;;;;;;5070547;28;20013;-79
2022/05/11 01:19:32;;;;;;;11.48;2.05;;;12.50;99.90;;;;;;5069844;28;20017;-80
2022/05/11 01:22:11;;;;;;;10.38;2.05;;;12.50;99.90;;;;;;5069665;28;20017;-80
2022/05/11 01:24:43;;;;;;;8.27;2.08;;;12.50;99.90;;;;;;5071629;28;20033;-80
2022/05/11 01:27:27;;;;;;;;;;;12.60;99.90;;;;;;5074535;28;20512;-80
2022/05/11 01:29:55;;;;;;;14.93;2.08;;;12.50;99.90;;;;;;5067977;28;19908;-80
2022/05/11 01:32:22;;;;;;;8.55;2.22;;;12.60;99.90;;;;;;5067994;28;20027;-80
2022/05/11 01:34:52;;;;;;;9.70;2.58;;;12.60;99.90;;;;;;5068995;28;20025;-80
2022/05/11 01:37:18;;;;;;;11.55;2.25;;;12.60;99.90;;;;;;5069740;28;20066;-80
2022/05/11 01:39:44;;;;;;;10.55;1.85;;;12.60;99.90;;;;;;5068865;28;20409;-80
2022/05/11 01:42:11;;;;;;;16.48;2.13;;;12.60;99.90;;;;;;5077258;28;20025;-80
2022/05/11 01:44:37;;;;;;;16.00;2.30;;;12.60;99.90;;;;;;5067738;28;20032;-80
2022/05/11 01:47:03;;;;;;;10.15;1.80;;;12.60;99.90;;;;;;5067712;28;20474;-80
2022/05/11 01:49:30;;;;;;;14.13;2.10;;;12.60;99.90;;;;;;5069132;28;20033;-80
2022/05/11 01:51:56;;;;;;;15.23;2.53;;;12.60;99.90;;;;;;5069708;28;20035;-80
2022/05/11 01:54:23;;;;;;;11.25;1.90;;;12.60;99.90;;;;;;5069139;28;20032;-80
2022/05/11 01:56:49;;;;;;;8.82;2.22;;;12.60;99.90;;;;;;5075634;28;20035;-80
2022/05/11 01:59:15;;;;;;;14.77;3.30;;;12.60;99.90;;;;;;5067359;28;20472;-80
2022/05/11 02:01:41;;;;;;;7.68;2.13;;;12.50;99.90;;;;;;5069731;28;20033;-80
2022/05/11 02:07:49;;;;;;;11.98;1.70;;;12.50;99.90;;;;;;5068146;28;20021;-81
2022/05/11 02:09:41;;;;;;;12.50;2.05;;;12.40;99.90;;;;;;5043705;28;20040;-77
2022/05/11 02:12:08;;;;;;;9.52;1.70;;;12.40;99.90;;;;;;5048652;28;20665;-77
2022/05/11 02:14:35;;;;;;;10.05;2.63;;;12.40;99.90;;;;;;5046962;28;20090;-77
2022/05/11 02:17:01;;;;;;;15.13;2.25;;;12.40;99.90;;;;;;5062081;28;20017;-77
2022/05/11 02:19:29;;;;;;;10.45;2.83;;;12.40;99.90;;;;;;5056400;28;20043;-77
2022/05/11 02:21:54;;;;;;;10.35;1.90;;;12.40;99.90;;;;;;5057875;28;20025;-76
2022/05/11 02:24:20;;;;;;;6.95;2.15;;;12.40;99.90;;;;;;5053110;28;20021;-75
2022/05/11 02:26:46;;;;;;;12.73;1.92;;;12.40;99.90;;;;;;5055963;28;20498;-75
2022/05/11 02:29:11;;;;;;;8.50;1.88;;;12.40;99.90;;;;;;5062173;28;20112;-77
2022/05/11 02:31:37;;;;;;;5.25;1.48;;;12.40;99.90;;;;;;5056056;28;20033;-77
2022/05/11 02:34:05;;;;;;;12.10;2.35;;;12.40;99.90;;;;;;5059248;28;20039;-77
2022/05/11 02:36:32;;;;;;;5.45;1.67;;;12.30;99.90;;;;;;5053576;28;20024;-75
2022/05/11 02:38:58;;;;;;;8.43;1.85;;;12.40;99.90;;;;;;5058482;28;20029;-75
2022/05/11 02:41:24;;;;;;;12.13;2.08;;;12.40;99.90;;;;;;5056381;28;20500;-76
2022/05/11 02:43:49;;;;;;;12.38;2.05;;;12.30;99.90;;;;;;5057370;28;20041;-76
2022/05/11 02:46:15;;;;;;;8.15;1.80;;;12.40;99.90;;;;;;5056480;28;20013;-77
2022/05/11 02:48:41;;;;;;;8.35;1.60;;;12.40;99.90;;;;;;5060375;28;20056;-77
2022/05/11 02:51:07;;;;;;;3.60;1.67;;;12.40;99.90;;;;;;5058211;28;20127;-75
2022/05/11 02:53:33;;;;;;;11.00;1.80;;;12.50;99.90;;;;;;5059369;28;20025;-77
2022/05/11 02:55:59;;;;;;;7.85;2.38;;;12.50;99.90;;;;;;5063652;28;20035;-76
2022/05/11 02:58:32;;;;;;;8.88;2.00;;;12.40;99.90;;;;;;5061144;28;20426;-78
2022/05/11 03:00:58;;;;;;;;;;;12.50;99.90;;;;;;5060684;28;20037;-77
2022/05/11 03:03:24;;;;;;;15.35;2.42;;;12.50;99.90;;;;;;5063747;28;19915;-75
2022/05/11 03:05:52;;;;;;;14.88;2.80;;;12.50;99.90;;;;;;5060438;22;20055;-80
2022/05/11 03:08:19;;;;;;;10.93;1.67;;;12.60;99.90;;;;;;5031586;28;20032;-80
2022/05/11 03:10:47;;;;;;;5.85;2.03;;;12.60;99.90;;;;;;5031715;28;20032;-80
2022/05/11 03:13:13;;;;;;;13.65;1.83;;;12.50;99.90;;;;;;5025255;28;20025;-80
2022/05/11 03:15:40;;;;;;;11.65;1.67;;;12.60;99.90;;;;;;5037355;28;20056;-80
2022/05/11 03:18:05;;;;;;;10.75;2.17;;;12.60;99.90;;;;;;5038790;28;20045;-81
2022/05/11 03:20:32;;;;;;;9.68;1.55;;;12.60;99.90;;;;;;5039263;28;20152;-80
2022/05/11 03:22:57;;;;;;;8.88;2.25;;;12.50;99.90;;;;;;5042476;28;20021;-80
2022/05/11 03:25:25;;;;;;;9.85;1.88;;;12.50;99.90;;;;;;5042896;28;20021;-79
2022/05/11 03:27:53;;;;;;;6.32;2.17;;;12.50;99.90;;;;;;5039482;28;20116;-79
2022/05/11 03:30:19;;;;;;;10.50;2.33;;;12.40;99.90;;;;;;5042492;28;20075;-81
2022/05/11 03:35:29;;;;;;;7.03;2.22;;;12.40;99.90;;;;;;5039710;28;20092;-80
2022/05/11 03:37:55;;;;;;;10.80;2.40;;;12.30;99.90;;;;;;5042890;28;20013;-80
2022/05/11 03:40:21;;;;;;;9.32;2.25;;;12.30;99.90;;;;;;5039132;28;20449;-80
2022/05/11 03:42:47;;;;;;;8.88;1.83;;;12.30;99.90;;;;;;5042224;28;20029;-81
2022/05/11 03:45:21;;;;;;;8.02;1.88;;;12.30;99.90;;;;;;5043773;28;20071;-80
2022/05/11 03:47:47;;;;;;;8.75;1.70;;;12.40;99.90;;;;;;5044270;28;20025;-80
2022/05/11 03:50:15;;;;;;;4.90;1.85;;;12.50;99.90;;;;;;5040394;28;20647;-80
2022/05/11 03:52:41;;;;;;;10.82;1.88;;;12.60;99.90;;;;;;5038116;28;20022;-80
2022/05/11 03:55:10;;;;;;;14.40;2.17;;;12.70;99.90;;;;;;5042588;28;20040;-79
2022/05/11 03:57:37;;;;;;;15.15;2.50;;;12.70;99.90;;;;;;5043466;28;20019;-80
2022/05/11 04:00:06;;;;;;;9.65;1.90;;;12.70;99.90;;;;;;5040185;28;20029;-79
2022/05/11 04:02:32;;;;;;;6.10;2.33;;;12.70;99.90;;;;;;5037445;28;20018;-80
2022/05/11 04:04:58;;;;;;;6.15;1.83;;;12.70;99.90;;;;;;5042750;28;20059;-79
2022/05/11 04:07:24;;;;;;;7.60;1.80;;;12.60;99.90;;;;;;5041301;28;20127;-80
2022/05/11 04:09:50;;;;;;;7.97;1.83;;;12.60;99.90;;;;;;5037759;28;20563;-79
2022/05/11 04:12:16;;;;;;;8.57;2.20;;;12.60;99.90;;;;;;5038966;28;20029;-79
2022/05/11 04:14:43;;;;;;;9.02;3.17;;;12.70;99.90;;;;;;5039143;28;20034;-79
2022/05/11 04:17:08;;;;;;;7.85;1.85;;;12.60;99.90;;;;;;5043452;28;20053;-81
2022/05/11 04:19:36;;;;;;;5.25;1.65;;;12.60;99.90;;;;;;5042702;28;20057;-80
2022/05/11 04:22:02;;;;;;;9.77;2.35;;;12.60;99.90;;;;;;5039416;28;20028;-80
2022/05/11 04:24:27;;;;;;;4.25;1.77;;;12.70;99.90;;;;;;5037359;28;20032;-80
2022/05/11 04:26:53;;;;;;;10.02;1.75;;;12.70;99.90;;;;;;5036144;28;20100;-80
2022/05/11 04:29:19;;;;;;;8.50;1.80;;;12.60;99.90;;;;;;5039903;28;20409;-79
2022/05/11 04:31:44;;;;;;;6.63;1.63;;;12.50;99.90;;;;;;5042234;28;20108;-80
2022/05/11 04:34:13;;;;;;;6.18;1.40;;;12.30;99.90;;;;;;5037620;28;20033;-79
2022/05/11 04:36:39;;;;;;;6.32;2.22;;;12.30;99.90;;;;;;5040345;28;20022;-80
2022/05/11 04:39:06;;;;;;;5.88;2.08;;;12.10;99.90;;;;;;5042670;28;20079;-80
2022/05/11 04:41:31;;;;;;;8.50;2.10;;;12.10;99.90;;;;;;5037631;28;20032;-80
2022/05/11 04:43:57;;;;;;;13.80;2.55;;;12.00;99.90;;;;;;5040981;28;20021;-79
2022/05/11 04:46:23;;;;;;;7.75;2.38;;;12.00;99.90;;;;;;5041199;28;20040;-80
2022/05/11 04:48:48;;;;;;;10.73;2.40;;;11.90;99.90;;;;;;5038225;28;20049;-80
2022/05/11 04:51:14;;;;;;;9.43;2.17;;;11.90;99.90;;;;;;5040526;28;20028;-80
2022/05/11 04:53:40;;;;;;;12.05;3.25;;;12.00;99.90;;;;;;5040114;28;20116;-80
2022/05/11 04:56:05;;;;;;;11.00;2.40;;;12.10;99.90;;;;;;5037248;28;20017;-80
2022/05/11 04:58:31;;;;;;;11.70;2.58;;;12.10;99.90;;;;;;5039258;28;20697;-80
2022/05/11 05:00:57;;;;;;;12.48;2.58;;;12.10;99.90;;;;;;5038235;28;20053;-80
2022/05/11 05:03:23;;;;;;;7.28;2.63;;;12.20;99.90;;;;;;5037617;28;20013;-80
2022/05/11 05:05:51;;;;;;;6.25;1.98;;;12.30;99.90;;;;;;5059643;23;20535;-78
2022/05/11 05:08:17;;;;;;;11.35;3.05;;;12.30;99.90;;;;;;5049032;28;20028;-78
2022/05/11 05:10:43;;;;;;;9.50;1.77;;;12.40;99.90;;;;;;5050449;28;20029;-77
2022/05/11 05:13:11;;;;;;;4.78;1.65;;;12.50;99.90;;;;;;5048872;28;20437;-78
2022/05/11 05:15:42;;;;;;;11.45;2.25;;;12.60;99.90;;;;;;5057093;28;20036;-78
2022/05/11 05:18:08;;;;;;;17.35;2.83;;;12.70;99.90;;;;;;5068705;28;20024;-77
2022/05/11 05:20:35;;;;;;;11.40;2.45;;;12.80;99.90;;;;;;5069421;28;20027;-77
2022/05/11 05:23:01;;;;;;;11.60;3.00;;;12.80;99.90;;;;;;5068200;28;20073;-77
2022/05/11 05:25:27;;;;;;;6.25;2.80;;;12.70;99.90;;;;;;5067618;28;20063;-77
2022/05/11 05:31:04;;;;;;;9.60;2.65;;;12.70;99.90;;;;;;5061813;28;20023;-76
2022/05/11 05:33:26;;;;;;;9.73;2.58;;;12.70;99.90;;;;;;5063281;28;20120;-77
2022/05/11 05:35:51;;;;;;;10.85;2.28;;;12.70;99.90;;;;;;5068410;28;20103;-77
2022/05/11 05:38:17;;;;;;;8.00;1.67;;;12.80;99.90;;;;;;5068273;28;20017;-79
2022/05/11 05:40:45;;;;;;;8.15;3.03;;;12.80;99.90;;;;;;5068500;28;20401;-79
2022/05/11 05:43:11;;;;;;;16.95;2.15;;;12.90;99.90;;;;;;5068362;28;20099;-79
2022/05/11 05:45:36;;;;;;;5.90;1.70;;;12.90;99.90;;;;;;5068446;28;20108;-80
2022/05/11 05:48:02;;;;;;;7.00;2.33;;;13.00;99.90;;;;;;5068639;28;20056;-79
2022/05/11 05:50:28;;;;;;;6.57;2.20;;;13.00;99.90;;;;;;5068285;28;20107;-79
2022/05/11 05:52:55;;;;;;;6.88;2.38;;;13.10;99.90;;;;;;5067844;28;20358;-79
2022/05/11 05:55:23;;;;;;;10.52;2.42;;;13.20;99.90;;;;;;5067370;28;20110;-77
2022/05/11 05:57:49;;;;;;;9.25;2.45;;;13.20;99.90;;;;;;5067832;28;20020;-79
2022/05/11 06:00:15;;;;;;;11.05;2.45;;;13.20;99.90;;;;;;5068570;28;20024;-78
2022/05/11 06:02:41;;;;;;;6.32;2.35;;;13.30;99.90;;;;;;5068410;28;20483;-79
2022/05/11 06:05:07;;;;;;;8.68;2.47;;;13.30;99.90;;;;;;5076191;23;20015;-79
2022/05/11 06:07:33;;;;;;;16.83;2.47;;;13.30;99.90;;;;;;5046135;28;20066;-79
2022/05/11 06:09:59;;;;;;;6.55;1.85;;;13.30;99.90;;;;;;5049604;28;20104;-78
2022/05/11 06:12:25;;;;;;;4.38;1.45;;;13.20;99.90;;;;;;5048760;28;20457;-80
2022/05/11 06:14:51;;;;;;;7.45;2.00;;;13.30;99.90;;;;;;5048599;28;20025;-79
2022/05/11 06:17:23;;;;;;;8.48;1.83;;;13.40;99.90;;;;;;5067285;28;20040;-79
2022/05/11 06:19:49;;;;;;;6.18;1.63;;;13.50;99.90;;;;;;5067629;28;20032;-79
2022/05/11 06:22:15;;;;;;;8.45;2.00;;;13.60;99.90;;;;;;5067686;28;20683;-80
2022/05/11 06:24:41;;;;;;;16.40;2.00;;;13.60;99.90;;;;;;5069160;28;20048;-79
2022/05/11 06:27:15;;;;;;;5.60;1.50;;;13.60;99.90;;;;;;5064300;28;20566;-80
2022/05/11 06:29:41;;;;;;;9.63;1.65;;;13.80;99.90;;;;;;5064836;28;20082;-79
2022/05/11 06:32:07;;;;;;;7.43;1.60;;;13.80;99.90;;;;;;5070795;28;20736;-78
2022/05/11 06:34:33;;;;;;;8.02;1.63;;;13.80;99.90;;;;;;5071932;28;20035;-80
2022/05/11 06:36:58;;;;;;;3.95;1.70;;;13.80;99.90;;;;;;5071623;28;20028;-81
2022/05/11 06:39:24;;;;;;;7.15;1.42;;;13.80;99.90;;;;;;5072156;28;20082;-82
2022/05/11 06:41:50;;;;;;;8.68;1.70;;;13.90;99.90;;;;;;5070929;28;20029;-78
2022/05/11 06:44:16;;;;;;;4.60;1.60;;;14.00;99.90;;;;;;5071975;28;20016;-77
2022/05/11 06:46:41;;;;;;;6.05;1.90;;;14.10;99.90;;;;;;5068385;28;20115;-78
2022/05/11 06:49:08;;;;;;;9.45;1.85;;;14.10;99.90;;;;;;5070526;28;20048;-77
2022/05/11 06:51:34;;;;;;;3.00;1.05;;;14.30;99.90;;;;;;5071256;28;20019;-77
2022/05/11 06:59:33;;;;;;;12.77;1.88;;;13.80;99.90;;;;;;5069943;28;20039;-77
2022/05/11 07:02:03;;;;;;;4.45;1.40;;;13.70;99.90;;;;;;5070936;28;20016;-77
2022/05/11 07:04:33;;;;;;;12.50;1.95;;;13.80;99.90;;;;;;5072070;28;20020;-77
2022/05/11 07:06:59;;;;;;;6.53;1.70;;;13.80;99.90;;;;;;5064210;28;20027;-77
2022/05/11 07:09:27;;;;;;;9.00;1.58;;;13.90;99.90;;;;;;5063862;28;20025;-81
2022/05/11 07:14:38;;;;;;;8.52;1.65;;;14.20;99.90;;;;;;5071235;28;20043;-80
2022/05/11 07:17:04;;;;;;;6.57;1.67;;;14.40;99.90;;;;;;5071004;28;20480;-78
2022/05/11 07:19:30;;;;;;;8.80;1.50;;;14.60;99.90;;;;;;5070991;28;20035;-78
2022/05/11 07:21:57;;;;;;;11.90;2.20;;;14.70;99.90;;;;;;5069891;28;20108;-78
2022/05/11 07:24:23;;;;;;;5.80;1.70;;;14.90;99.90;;;;;;5071418;28;20051;-82
2022/05/11 07:26:49;;;;;;;6.35;1.45;;;14.90;99.90;;;;;;5066277;28;20067;-78
2022/05/11 07:29:15;;;;;;;4.28;1.38;;;14.80;99.90;;;;;;5067612;28;20434;-78
2022/05/11 07:31:42;;;;;;;9.18;2.08;;;14.70;99.90;;;;;;5071201;28;20028;-78
2022/05/11 07:34:07;;;;;;;6.05;1.55;;;14.60;99.90;;;;;;5070163;28;20111;-79
2022/05/11 07:36:33;;;;;;;8.45;1.27;;;14.60;99.90;;;;;;5089100;23;20054;-78
2022/05/11 07:38:59;;;;;;;4.88;0.90;;;14.60;99.90;;;;;;5069788;28;20103;-78
2022/05/11 07:41:25;;;;;;;6.60;1.80;;;14.50;99.90;;;;;;5069412;28;20031;-79
2022/05/11 07:43:51;;;;;;;7.70;1.63;;;14.40;99.90;;;;;;5068390;28;20039;-78
2022/05/11 07:46:16;;;;;;;6.07;1.10;;;14.30;99.90;;;;;;5074538;28;20059;-76
2022/05/11 07:48:42;;;;;;;6.70;1.35;;;14.30;99.90;;;;;;5070054;28;20460;-76
2022/05/11 07:51:08;;;;;;;5.57;1.30;;;14.50;99.90;;;;;;5070072;28;20036;-77
2022/05/11 07:53:34;;;;;;;5.93;1.30;;;14.60;99.90;;;;;;5071607;28;20424;-76
2022/05/11 08:01:28;;;;;;;10.20;1.92;;;15.00;99.90;;;;;;5071039;28;20071;-78
2022/05/11 08:03:54;;;;;;;6.15;1.13;;;15.20;99.90;;;;;;5072256;28;20037;-79
2022/05/11 08:06:19;;;;;;;6.78;1.40;;;15.40;99.90;;;;;;5071772;28;20013;-78
2022/05/11 08:08:46;;;;;;;7.00;1.73;;;15.50;99.90;;;;;;5071717;28;20017;-79
2022/05/11 08:11:12;;;;;;;3.03;1.10;;;15.40;99.90;;;;;;5069808;28;20024;-78
2022/05/11 08:13:38;;;;;;;7.57;1.10;;;15.50;99.90;;;;;;5069991;28;20032;-78
2022/05/11 08:16:04;;;;;;;6.88;2.00;;;15.50;99.90;;;;;;5078743;28;20429;-78
2022/05/11 08:18:30;;;;;;;13.32;2.42;;;15.20;99.90;;;;;;5070902;28;20028;-79
2022/05/11 08:20:55;;;;;;;4.63;1.15;;;15.20;99.90;;;;;;5072043;28;20149;-78
2022/05/11 08:23:22;;;;;;;7.40;1.63;;;15.30;99.90;;;;;;5071095;28;20025;-79
2022/05/11 08:25:50;;;;;;;6.95;1.20;;;15.50;99.90;;;;;;5077140;28;20024;-78
2022/05/11 08:28:22;;;;;;;6.80;1.40;;;15.50;99.90;;;;;;5078312;28;20020;-79
2022/05/11 08:33:34;;;;;;;5.50;1.38;;;15.20;99.90;;;;;;5071047;28;19954;-79
2022/05/11 08:36:04;;;;;;;8.07;1.83;;;15.40;99.90;;;;;;5088460;23;20497;-79
2022/05/11 08:38:33;;;;;;;8.50;1.58;;;15.70;99.90;;;;;;5070296;28;20033;-80
2022/05/11 08:41:18;;;;;;;7.78;1.55;;;16.50;99.90;;;;;;5070785;28;20024;-79
2022/05/11 08:43:45;;;;;;;9.27;1.75;;;17.40;99.90;;;;;;5070777;28;20024;-80
2022/05/11 08:46:38;;;;;;;7.28;1.80;;;18.10;99.90;;;;;;5076194;28;20059;-79
2022/05/11 08:49:27;;;;;;;3.80;1.08;;;18.60;99.90;;;;;;5071048;28;20103;-80
2022/05/11 08:52:00;;;;;;;6.70;1.27;;;18.30;99.90;;;;;;5068617;28;20435;-79
2022/05/11 08:54:55;;;;;;;5.85;1.17;;;18.50;99.90;;;;;;5070677;28;20040;-79
2022/05/11 08:57:25;;;;;;;9.75;2.10;;;18.90;99.90;;;;;;5070253;28;20543;-79
2022/05/11 08:59:57;;;;;;;7.72;1.10;;;18.90;97.80;;;;;;5070704;28;20028;-79
2022/05/11 09:02:49;;;;;;;7.70;1.42;;;18.50;98.90;;;;;;5070207;28;20017;-79
2022/05/11 09:05:23;;;;;;;;;;;18.70;99.90;;;;;;5071043;28;20664;-79
2022/05/11 09:07:53;;;;;;;4.72;1.20;;;19.20;98.90;;;;;;5070022;28;19904;-79
2022/05/11 09:10:22;;;;;;;10.10;1.73;;;19.90;97.70;;;;;;5070011;28;20032;-79
2022/05/11 09:12:59;;;;;;;8.25;1.35;;;20.60;95.00;;;;;;5069028;28;20016;-79
2022/05/11 09:15:49;;;;;;;8.38;1.17;;;21.60;93.90;;;;;;5075545;28;20032;-80
2022/05/11 09:18:16;;;;;;;7.70;1.33;;;21.50;92.00;;;;;;5068488;28;20085;-78
2022/05/11 09:20:52;;;;;;;9.50;1.70;;;21.30;92.20;;;;;;5078504;28;20012;-81
2022/05/11 09:24:01;;;;;;;4.97;1.10;;;21.00;90.10;;;;;;5069121;28;20051;-79
2022/05/11 09:26:34;;;;;;;8.95;1.30;;;20.90;92.30;;;;;;5065818;28;20039;-81
2022/05/11 09:29:31;;;;;;;5.53;1.00;;;21.40;90.30;;;;;;5073448;28;20020;-80
2022/05/11 09:32:37;;;;;;;6.15;1.30;;;21.40;90.20;;;;;;5073427;28;20031;-80
2022/05/11 09:37:36;;;;;;;5.93;0.67;;;21.80;85.60;;;;;;5071681;28;20036;-77
2022/05/11 09:40:20;;;;;;;5.35;0.90;;;21.30;84.80;;;;;;5073176;28;20659;-77
2022/05/11 09:42:52;;;;;;;5.65;0.82;;;21.10;88.70;;;;;;5071878;28;20070;-78
2022/05/11 09:45:42;;;;;;;9.80;1.33;;;21.00;87.30;;;;;;5069959;28;20044;-78
2022/05/11 09:48:21;;;;;;;9.18;1.75;;;21.50;88.20;;;;;;5052017;28;20024;-77
2022/05/11 09:50:53;;;;;;;2.15;0.80;;;21.70;85.10;;;;;;5056061;28;20024;-77
2022/05/11 09:53:28;;;;;;;5.80;1.30;;;22.50;82.20;;;;;;5066940;28;20029;-77
2022/05/11 09:55:55;;;;;;;7.15;1.20;;;21.60;81.90;;;;;;5060781;28;20103;-77
2022/05/11 09:58:33;;;;;;;7.32;1.30;;;21.70;85.20;;;;;;5067362;28;20437;-77
2022/05/11 10:01:26;;;;;;;1.73;0.75;;;21.60;84.00;;;;;;5068394;28;20021;-78
2022/05/11 10:03:59;;;;;;;7.05;1.60;;;21.00;85.50;;;;;;5071178;28;20031;-77
2022/05/11 10:06:29;;;;;;;7.90;0.90;;;21.40;86.50;;;;;;5070142;28;20021;-79
2022/05/11 10:08:58;;;;;;;4.00;1.17;;;21.30;86.00;;;;;;5066083;28;20020;-78
2022/05/11 10:11:39;;;;;;;7.45;1.58;;;21.00;86.10;;;;;;5072562;28;20032;-77
2022/05/11 10:23:06;;;;;;;5.57;1.25;;;19.00;96.40;;;;;;5071788;28;20048;-77
2022/05/11 10:25:43;;;;;;;5.10;1.10;;;19.20;96.50;;;;;;5078716;28;20079;-77
2022/05/11 10:28:34;;;;;;;3.10;1.13;;;18.80;96.70;;;;;;5069595;28;20021;-77
2022/05/11 10:31:21;;;;;;;12.02;1.88;;;18.80;97.70;;;;;;5059063;28;20032;-77
2022/05/11 10:34:22;;;;;;;2.25;1.35;;;18.90;97.30;;;;;;5071105;28;20025;-77
2022/05/11 10:37:28;;;;;;;7.85;1.67;;;19.10;97.80;;;;;;5083192;22;20055;-79
2022/05/11 10:40:12;;;;;;;5.18;1.45;;;19.10;96.60;;;;;;5058046;28;20048;-78
2022/05/11 10:43:16;;;;;;;12.95;1.95;;;18.80;97.40;;;;;;5068634;28;20074;-79
2022/05/11 10:45:57;;;;;;;6.63;1.55;;;19.10;97.40;;;;;;5047144;28;20036;-80
2022/05/11 10:48:55;;;;;;;5.35;1.80;;;19.50;96.90;;;;;;5075147;28;20424;-79
2022/05/11 10:51:21;;;;;;;8.50;2.05;;;19.60;96.20;;;;;;5075026;28;20559;-79
2022/05/11 10:54:05;;;;;;;6.32;1.48;;;19.60;96.10;;;;;;5074898;28;20078;-80
2022/05/11 10:56:44;;;;;;;7.05;1.30;;;19.10;95.80;;;;;;5072663;28;20016;-80
2022/05/11 10:59:42;;;;;;;5.35;1.00;;;18.90;96.50;;;;;;5075197;28;20016;-79
2022/05/11 11:02:27;;;;;;;2.67;0.90;;;19.00;97.20;;;;;;5070753;28;20017;-80
2022/05/11 11:04:54;;;;;;;4.28;1.00;;;19.50;97.10;;;;;;5075624;28;20032;-80
2022/05/11 11:07:32;;;;;;;7.28;1.50;;;20.00;95.90;;;;;;5075378;28;20019;-80
2022/05/11 11:10:24;;;;;;;9.10;1.40;;;21.10;91.90;;;;;;5068398;28;20104;-80
2022/05/11 11:13:01;;;;;;;5.97;1.52;;;22.10;90.20;;;;;;5065368;28;20074;-80
2022/05/11 11:15:29;;;;;;;3.35;1.02;;;22.60;85.10;;;;;;5070676;28;20032;-79
2022/05/11 11:17:57;;;;;;;4.20;0.90;;;22.30;82.80;;;;;;5071522;28;20025;-79
2022/05/11 11:20:24;;;;;;;3.53;1.75;;;23.20;82.20;;;;;;5071659;28;20103;-80
2022/05/11 11:23:04;;;;;;;4.03;1.40;;;23.50;77.10;;;;;;5071376;28;20020;-81
2022/05/11 11:25:44;;;;;;;4.32;1.23;;;22.70;76.60;;;;;;5065559;28;20020;-81
2022/05/11 11:28:14;;;;;;;4.80;1.27;;;21.70;80.70;;;;;;5071265;28;20028;-81
2022/05/11 11:30:42;;;;;;;7.40;1.52;;;21.90;82.40;;;;;;5071573;28;20021;-81
2022/05/11 11:33:15;;;;;;;6.78;1.05;;;21.20;84.40;;;;;;5071022;28;20477;-81
2022/05/11 11:36:26;;;;;;;9.13;1.88;;;21.80;85.80;;;;;;5070074;28;20075;-81
2022/05/11 11:38:53;;;;;;;5.32;0.93;;;22.10;83.60;;;;;;5059260;28;20036;-81
2022/05/11 11:41:31;;;;;;;9.63;1.65;;;20.90;82.80;;;;;;5071094;28;20027;-81
2022/05/11 11:44:26;;;;;;;4.30;1.67;;;20.00;90.00;;;;;;5070435;28;20359;-80
2022/05/11 11:46:52;;;;;;;3.60;1.05;;;19.50;91.80;;;;;;5070236;28;20040;-82
2022/05/11 11:49:21;;;;;;;8.70;1.90;;;18.90;93.80;;;;;;5071027;28;20041;-80
2022/05/11 11:51:53;;;;;;;3.08;1.60;;;18.20;95.50;;;;;;5070427;28;20089;-81
2022/05/11 11:54:49;;;;;;;4.45;1.58;;;18.00;98.80;;;;;;5069214;28;20032;-80
2022/05/11 11:57:21;;;;;;;7.22;1.45;;;18.00;98.80;;;;;;5067838;28;20031;-81
2022/05/11 12:00:17;;;;;;;10.50;1.63;;;17.80;99.90;;;;;;5070599;28;20020;-79
2022/05/11 12:02:43;;;;;;;7.22;1.08;;;17.50;99.90;;;;;;5014807;28;20066;-80
2022/05/11 12:16:46;;;;;;;6.30;1.30;;;18.70;97.90;;;;;;5046080;28;20044;-76
2022/05/11 12:19:14;;;;;;;5.30;1.23;;;18.90;98.60;;;;;;5039350;28;20474;-77
2022/05/11 12:21:52;;;;;;;5.53;1.50;;;18.80;97.60;;;;;;5037250;28;20534;-77
2022/05/11 12:24:33;;;;;;;5.15;1.48;;;18.80;97.30;;;;;;5050350;28;20493;-77
2022/05/11 12:27:06;;;;;;;9.43;1.40;;;19.00;97.60;;;;;;5056927;28;20013;-77
2022/05/11 12:32:44;;;;;;;4.82;1.27;;;18.70;97.10;;;;;;5040597;28;20059;-78
2022/05/11 12:35:18;;;;;;;4.55;1.10;;;18.60;95.80;;;;;;5035661;28;20037;-77
2022/05/11 12:37:43;;;;;;;3.63;0.80;;;19.20;95.30;;;;;;5040228;28;20087;-76
2022/05/11 12:40:14;;;;;;;2.95;0.90;;;19.40;95.70;;;;;;5044994;28;20466;-76
2022/05/11 12:42:46;;;;;;;4.45;0.98;;;19.80;93.50;;;;;;5043736;28;20124;-76
2022/05/11 12:45:26;;;;;;;8.27;1.45;;;19.50;93.00;;;;;;5044902;28;20024;-76
2022/05/11 12:47:55;;;;;;;4.25;0.90;;;19.40;93.90;;;;;;5046245;28;20015;-77
2022/05/11 12:50:28;;;;;;;4.60;0.88;;;18.80;95.30;;;;;;5051034;28;20012;-77
2022/05/11 12:53:17;;;;;;;5.18;1.63;;;18.70;96.00;;;;;;5049622;28;20029;-76
2022/05/11 12:55:50;;;;;;;4.82;1.30;;;19.30;95.40;;;;;;5042141;28;20414;-77
2022/05/11 12:58:24;;;;;;;3.72;1.17;;;19.80;93.80;;;;;;5050698;28;20078;-77
2022/05/11 13:01:02;;;;;;;10.32;1.05;;;19.60;93.80;;;;;;5051000;28;20040;-76
2022/05/11 13:03:30;;;;;;;6.95;1.55;;;19.20;94.90;;;;;;5050825;28;20046;-76
2022/05/11 13:06:02;;;;;;;5.22;1.02;;;18.70;96.10;;;;;;5072256;22;20056;-80
2022/05/11 13:08:36;;;;;;;6.53;1.85;;;18.30;97.10;;;;;;5068419;28;20384;-81
2022/05/11 13:11:05;;;;;;;5.60;1.83;;;18.00;97.50;;;;;;5070801;28;20076;-81
2022/05/11 13:13:31;;;;;;;6.60;1.20;;;17.50;99.10;;;;;;5069459;28;20100;-81
2022/05/11 13:16:26;;;;;;;7.30;1.50;;;17.30;99.90;;;;;;5069227;28;20019;-81
2022/05/11 13:19:07;;;;;;;9.93;1.70;;;16.90;99.90;;;;;;5060589;28;20036;-81
2022/05/11 13:21:36;;;;;;;8.68;2.25;;;16.70;99.90;;;;;;5066994;28;20378;-81
2022/05/11 13:24:04;;;;;;;2.90;1.67;;;16.50;99.90;;;;;;5069580;28;20031;-81
2022/05/11 13:26:32;;;;;;;6.95;1.92;;;16.40;99.90;;;;;;5069101;28;20537;-80
2022/05/11 13:29:20;;;;;;;5.05;1.17;;;16.10;99.90;;;;;;5070015;28;20377;-81
2022/05/11 13:32:09;;;;;;;7.40;1.40;;;16.00;99.90;;;;;;5051854;28;20388;-81
2022/05/11 13:34:42;;;;;;;8.68;1.83;;;15.80;99.90;;;;;;5063486;28;20043;-82
2022/05/11 13:37:34;;;;;;;6.53;1.38;;;15.50;99.90;;;;;;5068925;28;20016;-81
2022/05/11 13:39:59;;;;;;;3.58;1.58;;;15.20;99.90;;;;;;5060827;28;20429;-80
2022/05/11 13:42:28;;;;;;;7.18;2.15;;;14.90;99.90;;;;;;5068887;28;20025;-82
2022/05/11 13:45:04;;;;;;;5.85;1.33;;;14.80;99.90;;;;;;5070032;28;20028;-83
2022/05/11 13:50:43;;;;;;;10.25;1.92;;;14.40;99.90;;;;;;5069433;28;20086;-82
2022/05/11 13:53:14;;;;;;;5.32;1.75;;;14.40;99.90;;;;;;5068682;28;20024;-82
2022/05/11 13:55:45;;;;;;;6.65;1.48;;;14.50;99.90;;;;;;5067649;28;20037;-82
2022/05/11 13:58:29;;;;;;;6.15;1.60;;;14.60;99.90;;;;;;5069179;28;20025;-83
2022/05/11 14:01:35;;;;;;;7.15;1.85;;;14.60;99.90;;;;;;5064027;28;20021;-82